Time;durP1;ratioP1;P1;durP2;ratioP2;P2;SDS_P1;SDS_P2;PMS_P1;PMS_P2;Temp;Humidity;BMP_temperature;BMP_pressure;BME280_temperature;BME280_humidity;BME280_pressure;Samples;Min_cycle;Max_cycle;Signal;HPM_P1;HPM_P2
2022/05/07 00:01:10;;;;;;;8.93;8.03;;;15.00;99.90;;;;;;5061612;28;20650;-53
2022/05/07 00:03:37;;;;;;;9.77;8.77;;;15.10;99.90;;;;;;5060242;28;20248;-55
2022/05/07 00:06:04;;;;;;;10.73;9.03;;;15.00;99.90;;;;;;5062240;28;20202;-54
2022/05/07 00:08:31;;;;;;;13.67;8.33;;;15.10;99.90;;;;;;5059271;28;20280;-54
2022/05/07 00:10:59;;;;;;;10.57;8.67;;;15.20;99.90;;;;;;5056332;28;20194;-54
2022/05/07 00:13:26;;;;;;;9.47;8.40;;;15.10;99.90;;;;;;5061214;28;20844;-54
2022/05/07 00:18:39;;;;;;;12.07;8.87;;;15.20;99.90;;;;;;5059089;28;20201;-54
2022/05/07 00:21:06;;;;;;;12.43;9.43;;;15.20;99.90;;;;;;5062381;28;20607;-56
2022/05/07 00:23:33;;;;;;;12.23;9.50;;;15.10;99.90;;;;;;5062042;28;20268;-55
2022/05/07 00:26:00;;;;;;;10.33;9.20;;;15.00;99.90;;;;;;5061447;28;20206;-53
2022/05/07 00:28:26;;;;;;;11.57;9.07;;;15.00;99.90;;;;;;5063914;28;20641;-54
2022/05/07 00:30:53;;;;;;;10.20;9.17;;;15.00;99.90;;;;;;5062214;28;20236;-54
2022/05/07 00:33:20;;;;;;;10.40;9.03;;;15.00;99.90;;;;;;5060696;28;20269;-53
2022/05/07 00:35:47;;;;;;;11.60;9.43;;;14.90;99.90;;;;;;5061491;28;20652;-55
2022/05/07 00:38:14;;;;;;;12.27;10.40;;;14.90;99.90;;;;;;5041771;28;20230;-55
2022/05/07 00:40:40;;;;;;;11.97;10.20;;;14.90;99.90;;;;;;5063007;28;20285;-55
2022/05/07 00:43:07;;;;;;;12.27;9.43;;;14.90;99.90;;;;;;5057422;28;20331;-55
2022/05/07 00:45:34;;;;;;;11.03;9.83;;;14.90;99.90;;;;;;5036640;28;20203;-54
2022/05/07 00:48:02;;;;;;;11.80;9.43;;;14.80;99.90;;;;;;5058561;28;20357;-53
2022/05/07 00:53:14;;;;;;;12.47;10.03;;;14.90;99.90;;;;;;5061332;28;20269;-55
2022/05/07 00:55:42;;;;;;;12.30;9.87;;;14.80;99.90;;;;;;5067199;28;20227;-55
2022/05/07 00:58:09;;;;;;;11.27;9.97;;;14.80;99.90;;;;;;5063565;28;20472;-55
2022/05/07 01:00:36;;;;;;;12.23;9.93;;;14.80;99.90;;;;;;5065637;28;20626;-55
2022/05/07 01:03:04;;;;;;;13.40;10.00;;;14.90;99.90;;;;;;5060928;28;20299;-54
2022/05/07 01:05:31;;;;;;;10.97;9.87;;;14.80;99.90;;;;;;5058853;28;20705;-55
2022/05/07 01:08:00;;;;;;;11.30;10.20;;;14.80;99.90;;;;;;5061086;28;20291;-55
2022/05/07 01:10:28;;;;;;;11.90;10.13;;;14.70;99.90;;;;;;5060969;28;20206;-55
2022/05/07 01:12:55;;;;;;;12.80;10.13;;;14.70;99.90;;;;;;5062013;28;20372;-55
2022/05/07 01:15:23;;;;;;;11.67;10.40;;;14.70;99.90;;;;;;5049543;28;20231;-55
2022/05/07 01:17:50;;;;;;;11.47;10.03;;;14.70;99.90;;;;;;5045037;28;20239;-53
2022/05/07 01:20:17;;;;;;;13.43;10.43;;;14.70;99.90;;;;;;5060147;28;20672;-55
2022/05/07 01:22:46;;;;;;;11.33;10.10;;;14.80;99.90;;;;;;5041844;28;20316;-54
2022/05/07 01:25:13;;;;;;;13.90;10.67;;;14.70;99.90;;;;;;5060698;28;20316;-54
2022/05/07 01:27:40;;;;;;;13.20;10.50;;;14.70;99.90;;;;;;5062341;28;20288;-56
2022/05/07 01:30:07;;;;;;;11.97;10.00;;;14.70;99.90;;;;;;5062833;28;20705;-55
2022/05/07 01:32:34;;;;;;;11.63;10.13;;;14.70;99.90;;;;;;5062101;28;20770;-55
2022/05/07 01:35:00;;;;;;;13.57;11.07;;;14.60;99.90;;;;;;5057345;28;20314;-54
2022/05/07 01:37:28;;;;;;;14.73;10.87;;;14.60;99.90;;;;;;5062717;28;20304;-55
2022/05/07 01:39:55;;;;;;;11.97;10.50;;;14.70;99.90;;;;;;5065770;28;20221;-57
2022/05/07 01:42:22;;;;;;;14.83;10.03;;;14.70;99.90;;;;;;5066033;28;20270;-53
2022/05/07 01:44:48;;;;;;;11.93;10.63;;;14.60;99.90;;;;;;5065014;28;20205;-56
2022/05/07 01:50:01;;;;;;;14.23;10.37;;;14.60;99.90;;;;;;5061530;28;20963;-55
2022/05/07 01:52:28;;;;;;;12.87;10.50;;;14.60;99.90;;;;;;5065291;28;20611;-54
2022/05/07 01:54:55;;;;;;;12.57;11.27;;;14.60;99.90;;;;;;5063757;28;20286;-55
2022/05/07 01:57:22;;;;;;;10.63;9.60;;;14.60;99.90;;;;;;5065957;28;20234;-55
2022/05/07 01:59:49;;;;;;;13.70;9.57;;;14.60;99.90;;;;;;5028039;28;20681;-55
2022/05/07 02:02:15;;;;;;;10.80;9.57;;;14.60;99.90;;;;;;5060669;28;20201;-54
2022/05/07 02:04:43;;;;;;;13.40;10.57;;;14.70;99.90;;;;;;5061784;28;20198;-54
2022/05/07 02:07:10;;;;;;;12.87;10.63;;;14.50;99.90;;;;;;5062661;28;20252;-55
2022/05/07 02:09:37;;;;;;;15.30;10.03;;;14.60;99.90;;;;;;5058269;28;20232;-54
2022/05/07 02:12:04;;;;;;;12.20;10.40;;;14.60;99.90;;;;;;5063099;28;20568;-55
2022/05/07 02:14:32;;;;;;;12.53;10.30;;;14.60;99.90;;;;;;5062661;28;20308;-55
2022/05/07 02:16:59;;;;;;;14.60;10.77;;;14.60;99.90;;;;;;5062354;28;20853;-54
2022/05/07 02:19:29;;;;;;;12.07;10.80;;;14.60;99.90;;;;;;5058758;28;20201;-54
2022/05/07 02:21:56;;;;;;;12.60;11.17;;;14.70;99.90;;;;;;5063364;28;20282;-55
2022/05/07 02:24:23;;;;;;;15.60;11.67;;;14.60;99.90;;;;;;5062815;28;20204;-55
2022/05/07 02:26:50;;;;;;;14.27;11.53;;;14.60;99.90;;;;;;5063932;28;20308;-54
2022/05/07 02:29:16;;;;;;;14.77;11.63;;;14.60;99.90;;;;;;5044115;28;20672;-54
2022/05/07 02:32:03;;;;;;;13.17;11.83;;;14.60;99.90;;;;;;5062762;28;20674;-55
2022/05/07 02:34:31;;;;;;;14.73;11.97;;;14.60;99.90;;;;;;5045587;28;20276;-55
2022/05/07 02:36:58;;;;;;;13.07;11.67;;;14.70;99.90;;;;;;5062932;28;20892;-54
2022/05/07 02:39:25;;;;;;;17.83;11.80;;;14.60;99.90;;;;;;5061694;28;20229;-54
2022/05/07 02:44:38;;;;;;;15.27;12.70;;;14.60;99.90;;;;;;5060926;28;20651;-55
2022/05/07 02:47:05;;;;;;;14.57;12.90;;;14.60;99.90;;;;;;5061659;28;20296;-55
2022/05/07 02:49:32;;;;;;;14.23;12.70;;;14.60;99.90;;;;;;5060428;28;20288;-53
2022/05/07 02:51:59;;;;;;;15.57;12.77;;;14.70;99.90;;;;;;5062212;28;20665;-55
2022/05/07 02:54:27;;;;;;;13.23;11.90;;;14.70;99.90;;;;;;5060461;28;20309;-55
2022/05/07 02:56:57;;;;;;;14.93;13.00;;;14.70;99.90;;;;;;5059087;28;20284;-54
2022/05/07 02:59:24;;;;;;;14.67;12.40;;;14.50;99.90;;;;;;5065934;28;20234;-55
2022/05/07 03:01:51;;;;;;;16.67;12.53;;;14.50;99.90;;;;;;5047156;28;20666;-55
2022/05/07 03:04:19;;;;;;;17.73;13.30;;;14.50;99.90;;;;;;5060317;28;20209;-54
2022/05/07 03:06:45;;;;;;;14.93;12.77;;;14.60;99.90;;;;;;5061672;28;20614;-55
2022/05/07 03:09:12;;;;;;;16.63;12.80;;;14.50;99.90;;;;;;5041826;28;20199;-55
2022/05/07 03:11:39;;;;;;;17.57;13.63;;;14.50;99.90;;;;;;5057304;28;20675;-55
2022/05/07 03:14:06;;;;;;;15.00;13.23;;;14.50;99.90;;;;;;5062049;28;20936;-55
2022/05/07 03:16:38;;;;;;;15.33;12.00;;;14.50;99.90;;;;;;5063550;28;20285;-55
2022/05/07 03:19:06;;;;;;;17.23;13.20;;;14.60;99.90;;;;;;5058744;28;20246;-54
2022/05/07 03:21:33;;;;;;;17.43;13.83;;;14.60;99.90;;;;;;5060880;28;20248;-55
2022/05/07 03:24:01;;;;;;;16.33;14.07;;;14.60;99.90;;;;;;5063050;28;20235;-55
2022/05/07 03:26:27;;;;;;;19.10;14.43;;;14.60;99.90;;;;;;5060892;28;20635;-55
2022/05/07 03:28:54;;;;;;;17.73;14.43;;;14.60;99.90;;;;;;5059074;28;20233;-55
2022/05/07 03:31:21;;;;;;;19.80;14.33;;;14.50;99.90;;;;;;5061224;28;20621;-54
2022/05/07 03:33:48;;;;;;;17.97;14.27;;;14.50;99.90;;;;;;5061311;28;20715;-55
2022/05/07 03:36:15;;;;;;;17.67;14.43;;;14.40;99.90;;;;;;5060545;28;20241;-54
2022/05/07 03:38:42;;;;;;;17.93;13.93;;;14.50;99.90;;;;;;5061209;28;20295;-55
2022/05/07 03:41:09;;;;;;;16.40;14.10;;;14.40;99.90;;;;;;5060869;28;20288;-54
2022/05/07 03:43:39;;;;;;;17.27;13.07;;;14.40;99.90;;;;;;5058531;28;20285;-55
2022/05/07 03:46:08;;;;;;;18.90;13.57;;;14.00;99.90;;;;;;5061693;28;20811;-53
2022/05/07 03:48:35;;;;;;;16.20;12.70;;;13.80;99.90;;;;;;5056379;28;20206;-54
2022/05/07 03:51:02;;;;;;;15.53;13.07;;;13.80;99.90;;;;;;5058780;28;20201;-55
2022/05/07 03:53:29;;;;;;;16.23;13.70;;;13.80;99.90;;;;;;5041675;28;20210;-55
2022/05/07 03:56:15;;;;;;;18.67;14.47;;;13.70;99.90;;;;;;5054424;28;20201;-55
2022/05/07 03:58:42;;;;;;;18.13;14.13;;;13.80;99.90;;;;;;5061741;28;20229;-54
2022/05/07 04:01:10;;;;;;;17.97;13.63;;;13.70;99.90;;;;;;5058236;28;20194;-54
2022/05/07 04:03:37;;;;;;;16.20;14.13;;;13.80;99.90;;;;;;5066052;28;20217;-54
2022/05/07 04:06:04;;;;;;;17.60;13.27;;;13.90;99.90;;;;;;5058637;28;20194;-54
2022/05/07 04:08:31;;;;;;;18.37;14.00;;;13.80;99.90;;;;;;5039916;28;20213;-54
2022/05/07 04:10:58;;;;;;;15.80;13.43;;;13.90;99.90;;;;;;5043041;28;20234;-57
2022/05/07 04:13:24;;;;;;;16.00;13.43;;;14.00;99.90;;;;;;5059615;28;20264;-55
2022/05/07 04:15:51;;;;;;;15.33;12.77;;;13.90;99.90;;;;;;5059308;28;20735;-55
2022/05/07 04:18:18;;;;;;;17.23;13.93;;;14.00;99.90;;;;;;5062596;28;20677;-55
2022/05/07 04:20:45;;;;;;;17.30;13.93;;;14.00;99.90;;;;;;5061440;28;20291;-54
2022/05/07 04:23:12;;;;;;;19.27;13.67;;;13.80;99.90;;;;;;5064155;28;20260;-54
2022/05/07 04:25:39;;;;;;;16.20;13.80;;;13.80;99.90;;;;;;5062057;28;20289;-55
2022/05/07 04:28:06;;;;;;;16.97;14.27;;;13.90;99.90;;;;;;5059676;28;20955;-54
2022/05/07 04:30:33;;;;;;;20.00;15.13;;;14.00;99.90;;;;;;5057545;28;20205;-55
2022/05/07 04:32:59;;;;;;;22.13;15.97;;;13.80;99.90;;;;;;5058909;28;20297;-54
2022/05/07 04:35:26;;;;;;;18.30;15.00;;;13.80;99.90;;;;;;5059336;28;20228;-55
2022/05/07 04:37:53;;;;;;;17.53;15.43;;;13.70;99.90;;;;;;5056903;28;20300;-55
2022/05/07 04:40:20;;;;;;;18.13;15.63;;;13.60;99.90;;;;;;5059225;28;20369;-52
2022/05/07 04:42:47;;;;;;;23.43;16.03;;;13.60;99.90;;;;;;5059384;28;20226;-57
2022/05/07 04:45:13;;;;;;;19.47;15.37;;;13.60;99.90;;;;;;5055946;28;20229;-55
2022/05/07 04:47:41;;;;;;;20.27;15.83;;;13.60;99.90;;;;;;5038727;28;20321;-54
2022/05/07 04:50:08;;;;;;;17.00;14.53;;;13.50;99.90;;;;;;5029541;28;20276;-54
2022/05/07 04:52:37;;;;;;;22.73;15.93;;;13.50;99.90;;;;;;5042180;28;20324;-53
2022/05/07 04:55:05;;;;;;;18.30;15.47;;;13.40;99.90;;;;;;5040111;28;20366;-56
2022/05/07 04:57:32;;;;;;;17.73;15.60;;;13.40;99.90;;;;;;5044174;28;20243;-55
2022/05/07 04:59:59;;;;;;;18.40;15.27;;;13.50;99.90;;;;;;5039798;28;20650;-55
2022/05/07 05:02:27;;;;;;;18.17;14.67;;;13.60;99.90;;;;;;5037203;28;20507;-54
2022/05/07 05:04:54;;;;;;;18.47;15.07;;;13.60;99.90;;;;;;5041652;28;20209;-55
2022/05/07 05:07:20;;;;;;;18.13;14.73;;;13.60;99.90;;;;;;5048996;28;20634;-54
2022/05/07 05:09:47;;;;;;;17.87;14.13;;;13.60;99.90;;;;;;5043242;28;20648;-55
2022/05/07 05:12:14;;;;;;;19.57;15.27;;;13.60;99.90;;;;;;5037850;28;20261;-54
2022/05/07 05:17:26;;;;;;;26.03;15.20;;;13.50;99.90;;;;;;5040729;28;20202;-55
2022/05/07 05:19:53;;;;;;;19.33;16.10;;;13.40;99.90;;;;;;5037071;28;20211;-54
2022/05/07 05:22:20;;;;;;;20.10;15.53;;;13.40;99.90;;;;;;5032525;28;20600;-55
2022/05/07 05:24:47;;;;;;;18.63;14.67;;;13.40;99.90;;;;;;5037781;28;20209;-56
2022/05/07 05:27:14;;;;;;;20.57;14.33;;;13.40;99.90;;;;;;5024697;28;20312;-57
2022/05/07 05:29:41;;;;;;;18.50;15.37;;;13.40;99.90;;;;;;5040697;28;20649;-55
2022/05/07 05:32:08;;;;;;;19.80;14.67;;;13.40;99.90;;;;;;5043329;28;20299;-60
2022/05/07 05:34:35;;;;;;;18.03;14.30;;;13.40;99.90;;;;;;5039218;28;20705;-56
2022/05/07 05:37:02;;;;;;;22.43;14.57;;;13.50;99.90;;;;;;5042167;28;20497;-56
2022/05/07 05:39:29;;;;;;;19.63;14.10;;;13.70;99.90;;;;;;5032212;28;20351;-55
2022/05/07 05:41:58;;;;;;;18.50;14.43;;;13.70;99.90;;;;;;5039622;28;20233;-54
2022/05/07 05:44:25;;;;;;;19.30;14.20;;;13.80;99.90;;;;;;5040356;28;20213;-55
2022/05/07 05:46:51;;;;;;;22.60;15.97;;;13.70;99.90;;;;;;5045757;28;20237;-54
2022/05/07 05:49:18;;;;;;;17.80;14.40;;;13.90;99.90;;;;;;5057483;28;20241;-59
2022/05/07 05:51:45;;;;;;;17.53;14.30;;;13.90;99.90;;;;;;5060715;28;20295;-55
2022/05/07 05:54:12;;;;;;;20.00;14.07;;;13.90;99.90;;;;;;5058564;28;20302;-54
2022/05/07 05:56:39;;;;;;;16.83;14.20;;;13.80;99.90;;;;;;5060499;28;20675;-55
2022/05/07 05:59:06;;;;;;;21.30;13.90;;;14.00;99.90;;;;;;5057111;28;20560;-54
2022/05/07 06:01:33;;;;;;;19.27;14.23;;;14.10;99.90;;;;;;5052841;28;20206;-55
2022/05/07 06:04:00;;;;;;;19.67;14.77;;;13.90;99.90;;;;;;5059693;28;20201;-55
2022/05/07 06:06:26;;;;;;;20.73;15.40;;;14.00;99.90;;;;;;5057505;28;20409;-54
2022/05/07 06:08:53;;;;;;;18.97;13.43;;;14.00;99.90;;;;;;5054768;28;20225;-52
2022/05/07 06:11:20;;;;;;;22.73;14.30;;;14.00;99.90;;;;;;5061712;28;20293;-54
2022/05/07 06:13:47;;;;;;;19.53;14.23;;;14.20;99.90;;;;;;5058527;28;20688;-55
2022/05/07 06:16:14;;;;;;;20.43;14.20;;;14.30;99.90;;;;;;5060702;28;20221;-55
2022/05/07 06:18:41;;;;;;;23.93;13.70;;;14.50;99.90;;;;;;5057410;28;20205;-55
2022/05/07 06:21:08;;;;;;;21.77;13.03;;;14.70;99.90;;;;;;5062531;28;20230;-54
2022/05/07 06:23:35;;;;;;;19.50;14.33;;;14.80;99.90;;;;;;5061247;28;20267;-55
2022/05/07 06:28:47;;;;;;;19.63;11.80;;;14.70;99.90;;;;;;5055772;28;20214;-56
2022/05/07 06:31:14;;;;;;;19.13;12.97;;;14.90;99.90;;;;;;5060027;28;20198;-55
2022/05/07 06:33:41;;;;;;;23.33;13.07;;;15.10;99.90;;;;;;5060266;28;21501;-55
2022/05/07 06:36:08;;;;;;;22.93;14.43;;;15.00;99.90;;;;;;5059943;28;20229;-54
2022/05/07 06:38:35;;;;;;;26.53;13.73;;;15.20;99.90;;;;;;5058622;28;20310;-54
2022/05/07 06:41:04;;;;;;;19.03;13.30;;;15.30;99.90;;;;;;5057997;28;20620;-54
2022/05/07 06:43:31;;;;;;;21.90;12.67;;;15.60;99.90;;;;;;5048415;28;20337;-55
2022/05/07 06:45:59;;;;;;;23.87;13.63;;;15.80;99.90;;;;;;5060417;28;20289;-55
2022/05/07 06:48:27;;;;;;;23.43;13.23;;;15.90;99.90;;;;;;5059611;28;20203;-54
2022/05/07 06:50:54;;;;;;;21.30;13.27;;;15.70;99.90;;;;;;5060057;28;20233;-56
2022/05/07 06:53:22;;;;;;;21.57;12.67;;;15.70;99.90;;;;;;5038580;28;20300;-53
2022/05/07 06:55:54;;;;;;;22.90;13.10;;;15.70;99.90;;;;;;5060246;28;20574;-55
2022/05/07 06:58:22;;;;;;;20.97;12.63;;;15.90;99.90;;;;;;5060108;28;20623;-54
2022/05/07 07:00:54;;;;;;;24.60;13.10;;;16.10;99.90;;;;;;5051006;28;20539;-55
2022/05/07 07:03:21;;;;;;;19.03;12.83;;;16.10;99.90;;;;;;5052149;28;20791;-53
2022/05/07 07:05:50;;;;;;;26.07;13.70;;;16.20;99.90;;;;;;5055600;28;20662;-55
2022/05/07 07:08:17;;;;;;;24.40;13.10;;;16.30;99.90;;;;;;5057488;28;20281;-54
2022/05/07 07:10:45;;;;;;;23.77;13.03;;;16.10;99.90;;;;;;5061325;28;20226;-54
2022/05/07 07:13:11;;;;;;;22.60;12.90;;;16.20;99.90;;;;;;5056128;28;20194;-53
2022/05/07 07:15:41;;;;;;;23.13;14.63;;;16.40;99.90;;;;;;5055544;28;20198;-53
2022/05/07 07:18:12;;;;;;;22.37;13.40;;;16.50;99.90;;;;;;5054927;28;20296;-57
2022/05/07 07:20:40;;;;;;;21.30;14.10;;;16.70;99.90;;;;;;5052280;28;20199;-54
2022/05/07 07:23:12;;;;;;;23.23;13.47;;;16.70;99.90;;;;;;5057640;28;20353;-55
2022/05/07 07:25:40;;;;;;;22.03;13.20;;;16.90;99.90;;;;;;5057104;28;20573;-55
2022/05/07 07:28:12;;;;;;;29.83;13.17;;;17.10;99.90;;;;;;5053603;28;20288;-54
2022/05/07 07:30:39;;;;;;;22.03;12.63;;;17.40;99.90;;;;;;5060261;28;20207;-55
2022/05/07 07:33:07;;;;;;;21.70;12.63;;;17.30;99.90;;;;;;5054248;28;20273;-54
2022/05/07 07:35:34;;;;;;;21.03;13.20;;;17.30;99.90;;;;;;5052498;28;20271;-55
2022/05/07 07:38:01;;;;;;;19.23;11.53;;;17.30;99.90;;;;;;5060807;28;20657;-55
2022/05/07 07:40:29;;;;;;;23.47;12.63;;;17.40;99.90;;;;;;5054169;28;20228;-55
2022/05/07 07:42:56;;;;;;;22.73;12.20;;;17.70;99.90;;;;;;5059811;28;20265;-56
2022/05/07 07:48:10;;;;;;;21.37;13.23;;;17.90;99.90;;;;;;5050112;28;20619;-55
2022/05/07 07:50:38;;;;;;;22.53;12.17;;;17.50;99.90;;;;;;5055560;28;20204;-55
2022/05/07 07:53:10;;;;;;;23.43;13.13;;;17.80;99.90;;;;;;5059208;28;20223;-55
2022/05/07 07:55:37;;;;;;;25.83;13.37;;;17.70;99.90;;;;;;5063957;28;20741;-55
2022/05/07 07:58:09;;;;;;;22.57;12.73;;;17.70;99.90;;;;;;5045699;28;20694;-55
2022/05/07 08:00:38;;;;;;;22.60;12.73;;;17.60;99.90;;;;;;5065227;28;20249;-55
2022/05/07 08:03:15;;;;;;;25.87;12.83;;;18.10;99.90;;;;;;5064807;28;20198;-54
2022/05/07 08:05:44;;;;;;;21.53;12.63;;;18.60;99.90;;;;;;5061602;28;20686;-54
2022/05/07 08:13:46;;;;;;;23.00;12.77;;;18.60;99.90;;;;;;5065565;28;20601;-54
2022/05/07 08:16:14;;;;;;;21.30;12.13;;;18.80;99.90;;;;;;5068631;28;20200;-55
2022/05/07 08:18:41;;;;;;;21.73;12.67;;;19.10;99.90;;;;;;5061591;28;20737;-55
2022/05/07 08:21:10;;;;;;;22.93;13.83;;;19.20;99.90;;;;;;5067913;28;20269;-56
2022/05/07 08:23:38;;;;;;;24.47;13.70;;;19.10;99.90;;;;;;5061414;28;22331;-55
2022/05/07 08:26:06;;;;;;;23.80;13.17;;;19.10;99.90;;;;;;5046020;28;20217;-54
2022/05/07 08:28:35;;;;;;;24.20;12.13;;;19.60;99.90;;;;;;5066443;28;20275;-55
2022/05/07 08:31:02;;;;;;;22.73;13.20;;;19.70;99.90;;;;;;5069488;28;20197;-55
2022/05/07 08:33:33;;;;;;;22.40;13.80;;;20.10;99.90;;;;;;5067209;28;20215;-53
2022/05/07 08:36:00;;;;;;;20.33;13.90;;;20.00;99.90;;;;;;5067447;28;20651;-56
2022/05/07 08:38:27;;;;;;;25.03;13.40;;;19.90;99.90;;;;;;5070008;28;20615;-55
2022/05/07 08:40:55;;;;;;;21.50;13.87;;;20.30;99.90;;;;;;5068777;28;20708;-55
2022/05/07 08:43:22;;;;;;;24.50;14.93;;;20.30;99.90;;;;;;5065665;28;20245;-54
2022/05/07 08:45:49;;;;;;;24.23;14.00;;;20.00;99.90;;;;;;5068174;28;20700;-54
2022/05/07 08:48:15;;;;;;;23.17;12.87;;;19.70;99.90;;;;;;5066582;28;20617;-54
2022/05/07 08:50:44;;;;;;;18.83;12.00;;;20.00;99.90;;;;;;5067244;28;20214;-55
2022/05/07 08:53:11;;;;;;;17.43;11.53;;;20.20;99.90;;;;;;5065264;28;20511;-55
2022/05/07 08:55:37;;;;;;;17.70;11.00;;;20.30;99.90;;;;;;5063161;28;20678;-54
2022/05/07 08:58:04;;;;;;;19.53;11.50;;;20.70;99.90;;;;;;5038492;28;20209;-56
2022/05/07 09:00:33;;;;;;;17.77;10.73;;;21.10;99.90;;;;;;5068664;28;20199;-54
2022/05/07 09:03:01;;;;;;;18.00;11.80;;;21.20;99.90;;;;;;5068157;28;20199;-56
2022/05/07 09:05:36;;;;;;;19.03;11.23;;;21.20;99.90;;;;;;5068208;28;20248;-55
2022/05/07 09:08:06;;;;;;;18.27;11.67;;;21.00;99.90;;;;;;5051909;28;20199;-55
2022/05/07 09:10:37;;;;;;;18.73;11.43;;;21.10;99.90;;;;;;5062116;28;20229;-55
2022/05/07 09:13:14;;;;;;;19.27;11.03;;;21.00;99.90;;;;;;5059501;28;20204;-54
2022/05/07 09:15:54;;;;;;;16.27;10.13;;;21.00;99.90;;;;;;5062356;28;20789;-55
2022/05/07 09:18:22;;;;;;;17.03;11.27;;;21.30;99.90;;;;;;5063184;28;20209;-55
2022/05/07 09:21:25;;;;;;;17.23;9.90;;;21.50;99.90;;;;;;5069273;28;20754;-56
2022/05/07 09:24:03;;;;;;;16.57;9.13;;;21.60;99.90;;;;;;5064517;28;20744;-55
2022/05/07 09:26:40;;;;;;;16.80;9.83;;;21.70;99.90;;;;;;5053824;28;20285;-57
2022/05/07 09:29:10;;;;;;;12.90;8.50;;;21.80;99.90;;;;;;5066187;28;20209;-56
2022/05/07 09:31:42;;;;;;;20.87;9.53;;;22.00;99.90;;;;;;5061709;28;20191;-59
2022/05/07 09:37:01;;;;;;;14.77;8.57;;;22.20;99.90;;;;;;5064558;28;20625;-56
2022/05/07 09:39:37;;;;;;;15.80;9.67;;;21.90;99.90;;;;;;5063422;28;20256;-56
2022/05/07 09:42:06;;;;;;;16.23;9.23;;;22.30;99.90;;;;;;5046494;28;20225;-55
2022/05/07 09:44:34;;;;;;;15.73;9.67;;;22.00;99.90;;;;;;5063170;28;20290;-55
2022/05/07 09:47:03;;;;;;;13.50;9.27;;;21.70;99.90;;;;;;5061505;28;20768;-54
2022/05/07 09:49:33;;;;;;;19.20;9.70;;;21.60;99.90;;;;;;5062605;28;20202;-55
2022/05/07 09:52:03;;;;;;;14.40;8.73;;;21.40;99.90;;;;;;5068047;28;20195;-55
2022/05/07 09:57:31;;;;;;;15.43;9.30;;;21.30;99.90;;;;;;5060061;28;20288;-55
2022/05/07 10:00:06;;;;;;;13.93;9.20;;;21.60;99.90;;;;;;5065658;28;20203;-55
2022/05/07 10:02:51;;;;;;;14.43;9.03;;;21.20;99.90;;;;;;5061401;28;20199;-54
2022/05/07 10:05:50;;;;;;;14.97;9.47;;;21.30;99.90;;;;;;5063281;28;20199;-54
2022/05/07 10:08:45;;;;;;;12.07;7.60;;;21.30;99.90;;;;;;5070042;28;20202;-56
2022/05/07 10:11:16;;;;;;;12.03;8.23;;;21.50;99.90;;;;;;5065298;28;20260;-56
2022/05/07 10:13:58;;;;;;;13.50;10.13;;;21.00;99.90;;;;;;5060568;28;20806;-55
2022/05/07 10:16:29;;;;;;;12.23;8.53;;;20.70;99.90;;;;;;5069149;28;20198;-59
2022/05/07 10:19:08;;;;;;;14.47;9.83;;;21.40;99.90;;;;;;5067614;28;20541;-55
2022/05/07 10:21:34;;;;;;;14.40;8.70;;;21.30;99.90;;;;;;5065869;28;20230;-55
2022/05/07 10:24:02;;;;;;;16.97;8.90;;;21.50;99.90;;;;;;5059818;28;20299;-58
2022/05/07 10:26:43;;;;;;;13.40;8.90;;;21.30;99.90;;;;;;5061782;28;21169;-58
2022/05/07 10:29:30;;;;;;;17.60;10.67;;;21.70;99.90;;;;;;5047822;28;20655;-56
2022/05/07 10:32:03;;;;;;;16.00;8.60;;;21.50;99.90;;;;;;5069470;28;20203;-56
2022/05/07 10:34:30;;;;;;;17.53;10.43;;;21.30;99.90;;;;;;5071759;28;20311;-57
2022/05/07 10:37:05;;;;;;;17.77;9.37;;;21.40;99.90;;;;;;5069270;28;20204;-58
2022/05/07 10:39:33;;;;;;;20.07;9.57;;;21.40;99.90;;;;;;5068883;28;20287;-58
2022/05/07 10:42:02;;;;;;;12.50;8.17;;;21.50;99.90;;;;;;5067445;28;20198;-55
2022/05/07 10:44:33;;;;;;;15.83;10.27;;;21.80;99.90;;;;;;5065049;28;20213;-57
2022/05/07 10:47:14;;;;;;;19.40;10.30;;;21.90;99.90;;;;;;5068916;28;20311;-54
2022/05/07 10:49:51;;;;;;;14.07;10.20;;;21.90;99.90;;;;;;5064259;28;20248;-57
2022/05/07 10:52:30;;;;;;;15.00;8.93;;;22.20;99.90;;;;;;5067011;28;20230;-55
2022/05/07 10:55:10;;;;;;;18.23;11.20;;;22.70;99.90;;;;;;5061121;28;20218;-59
2022/05/07 10:57:47;;;;;;;16.47;10.60;;;22.40;99.90;;;;;;5066253;28;20194;-54
2022/05/07 11:00:22;;;;;;;12.83;9.90;;;22.30;99.90;;;;;;5066205;28;20191;-55
2022/05/07 11:03:00;;;;;;;17.60;9.43;;;22.50;99.90;;;;;;5068272;28;20745;-55
2022/05/07 11:05:31;;;;;;;11.37;8.47;;;22.20;99.90;;;;;;5064698;28;20203;-57
2022/05/07 11:08:00;;;;;;;12.93;8.17;;;22.10;99.90;;;;;;5070065;28;20306;-58
2022/05/07 11:10:27;;;;;;;13.23;7.83;;;21.90;99.90;;;;;;5050670;28;20249;-56
2022/05/07 11:13:07;;;;;;;15.03;8.70;;;22.10;99.90;;;;;;5070179;28;20193;-55
2022/05/07 11:15:34;;;;;;;11.93;8.80;;;21.60;99.90;;;;;;5066175;28;20306;-60
2022/05/07 11:18:12;;;;;;;14.37;9.90;;;21.40;99.90;;;;;;5069238;28;20290;-55
2022/05/07 11:20:39;;;;;;;13.87;8.80;;;21.80;99.90;;;;;;5058040;28;20214;-55
2022/05/07 11:23:06;;;;;;;11.13;8.73;;;21.80;99.90;;;;;;5061869;28;20230;-55
2022/05/07 11:25:32;;;;;;;9.50;7.27;;;22.00;99.90;;;;;;5062110;28;20688;-56
2022/05/07 11:28:00;;;;;;;9.73;7.43;;;22.50;99.90;;;;;;5063223;28;20199;-54
2022/05/07 11:30:27;;;;;;;10.77;7.53;;;22.80;99.90;;;;;;5058008;28;20282;-54
2022/05/07 11:32:55;;;;;;;11.80;7.37;;;22.90;99.90;;;;;;5062156;28;20222;-54
2022/05/07 11:35:25;;;;;;;10.43;7.87;;;22.40;99.90;;;;;;5061519;28;20306;-55
2022/05/07 11:37:51;;;;;;;9.70;6.67;;;22.00;99.90;;;;;;5069977;28;20196;-55
2022/05/07 11:40:29;;;;;;;11.40;7.17;;;21.80;99.90;;;;;;5062155;28;20219;-55
2022/05/07 11:45:42;;;;;;;10.80;7.30;;;21.40;99.90;;;;;;5065889;28;20691;-55
2022/05/07 11:48:14;;;;;;;8.00;6.37;;;21.30;99.90;;;;;;5061235;28;20599;-57
2022/05/07 11:50:53;;;;;;;7.90;6.07;;;21.20;99.90;;;;;;5058724;28;20210;-55
2022/05/07 11:53:22;;;;;;;8.40;6.37;;;21.10;99.90;;;;;;5055705;28;20763;-55
2022/05/07 11:55:50;;;;;;;9.73;6.03;;;20.80;99.90;;;;;;5054841;28;20678;-56
2022/05/07 11:58:17;;;;;;;11.43;6.23;;;20.70;99.90;;;;;;5063566;28;20235;-55
2022/05/07 12:00:49;;;;;;;7.43;5.77;;;20.70;99.90;;;;;;5064710;28;20279;-57
2022/05/07 12:03:24;;;;;;;8.50;6.27;;;20.70;99.90;;;;;;5059191;28;20203;-55
2022/05/07 12:05:52;;;;;;;9.10;5.83;;;20.60;99.90;;;;;;5065615;28;20652;-55
2022/05/07 12:08:20;;;;;;;8.63;5.80;;;20.50;99.90;;;;;;5058175;28;20234;-55
2022/05/07 12:10:49;;;;;;;9.13;6.70;;;20.70;99.90;;;;;;5063962;28;20290;-55
2022/05/07 12:13:18;;;;;;;11.87;6.67;;;20.90;99.90;;;;;;5065581;28;20299;-55
2022/05/07 12:18:41;;;;;;;7.90;6.17;;;21.40;99.90;;;;;;5059321;28;20226;-55
2022/05/07 12:21:08;;;;;;;11.70;6.60;;;21.80;99.90;;;;;;5060620;28;20606;-54
2022/05/07 12:31:55;;;;;;;13.73;6.57;;;21.30;99.90;;;;;;5061093;28;20268;-55
2022/05/07 12:34:28;;;;;;;7.73;5.57;;;21.10;99.90;;;;;;5058810;28;20203;-55
2022/05/07 12:36:55;;;;;;;7.30;5.47;;;20.80;99.90;;;;;;5052685;28;20272;-55
2022/05/07 12:39:22;;;;;;;11.67;6.50;;;20.90;99.90;;;;;;5050101;28;20285;-56
2022/05/07 12:41:49;;;;;;;9.57;6.07;;;21.00;99.90;;;;;;5060478;28;20716;-55
2022/05/07 12:44:15;;;;;;;9.17;6.63;;;20.80;99.90;;;;;;5062901;28;20661;-55
2022/05/07 12:46:43;;;;;;;7.63;5.63;;;20.60;99.90;;;;;;5064517;28;20513;-54
2022/05/07 12:49:10;;;;;;;8.67;6.30;;;20.70;99.90;;;;;;5062623;28;20300;-55
2022/05/07 12:51:37;;;;;;;9.57;6.30;;;21.00;99.90;;;;;;5065410;28;20226;-57
2022/05/07 12:54:03;;;;;;;8.93;5.53;;;21.00;99.90;;;;;;5063334;28;20248;-55
2022/05/07 12:56:31;;;;;;;8.40;5.20;;;20.80;99.90;;;;;;5071131;28;20221;-55
2022/05/07 12:58:57;;;;;;;8.40;5.40;;;20.70;99.90;;;;;;5061313;28;20526;-55
2022/05/07 13:01:24;;;;;;;6.00;5.23;;;20.90;99.90;;;;;;5068372;28;20195;-56
2022/05/07 13:03:51;;;;;;;6.33;4.87;;;21.10;99.90;;;;;;5065907;28;20843;-56
2022/05/07 13:06:18;;;;;;;6.40;5.20;;;20.90;99.90;;;;;;5063372;28;20337;-55
2022/05/07 13:08:50;;;;;;;9.03;5.07;;;20.60;99.90;;;;;;5064051;28;20650;-55
2022/05/07 13:11:17;;;;;;;9.93;5.70;;;20.60;99.90;;;;;;5066492;28;20248;-53
2022/05/07 13:13:44;;;;;;;7.70;5.10;;;20.50;99.90;;;;;;5065868;28;20238;-55
2022/05/07 13:16:11;;;;;;;9.17;6.33;;;20.60;99.90;;;;;;5064857;28;20207;-55
2022/05/07 13:18:38;;;;;;;10.60;6.97;;;20.60;99.90;;;;;;5063720;28;20531;-55
2022/05/07 13:21:06;;;;;;;8.77;6.53;;;20.90;99.90;;;;;;5068014;28;20291;-56
2022/05/07 13:23:33;;;;;;;10.10;7.07;;;21.00;99.90;;;;;;5066924;28;20764;-55